Spirit Of Washington — WDC9006 — position and weather

sailwx.info

Track history (hours):
 
Tides and Currents Weather Stations Pressure Air Temp Water Temp Dewpoint Dewpoint Depression Visibility Wind Speed Wind Dir Waves Ship Positions

Spirit Of Washington

Owner: SPIRIT CRUISES LLC, Washington, DC. More information available from US FCC via Universal Licensing System and Coast Guard Vessel Documentation Center.

Last reported at 2017-Dec-15 23:29 UTC. Time now 2017-Dec-15 23:31 UTC.
Position N 38°52' W 077°01'.

Length 47 m; draft 2.1 m.

Type: Passenger vessel. MMSI: 367096310.

Date/timePositionNaut miles runAvg speedWind from/ knotsBaromVisibWave heightAir tempDewpointWater temp
2017-Dec-15 23:29N 38°52' W 077°01'0 0.0
2017-Dec-15 22:59N 38°52' W 077°01'0 0.0
2017-Dec-15 22:29N 38°52' W 077°01'0 0.0
2017-Dec-15 21:59N 38°52' W 077°01'0 0.0
2017-Dec-15 21:29N 38°52' W 077°01'0 0.0
2017-Dec-15 20:57N 38°52' W 077°01'0 0.0
2017-Dec-15 20:30N 38°52' W 077°01'0 0.0
2017-Dec-15 19:54N 38°52' W 077°01'0 0.0
2017-Dec-15 19:30N 38°52' W 077°01'0 0.0
2017-Dec-15 19:00N 38°52' W 077°01'0 0.0
2017-Dec-15 18:28N 38°52' W 077°01'2 3.6
2017-Dec-15 18:00N 38°51' W 077°01'4 7.0
2017-Dec-15 17:29N 38°47' W 077°02'3 6.3
2017-Dec-15 17:00N 38°50' W 077°02'2 4.5
2017-Dec-15 16:28N 38°52' W 077°01'0 0.0
2017-Dec-15 15:56N 38°52' W 077°01'0 0.0
2017-Dec-15 15:29N 38°52' W 077°01'0 0.0
2017-Dec-15 14:48N 38°52' W 077°01'0 0.0
2017-Dec-15 14:30N 38°52' W 077°01'0 0.0
2017-Dec-15 13:56N 38°52' W 077°01'0 0.0
2017-Dec-15 13:27N 38°52' W 077°01'0 0.0
2017-Dec-15 12:59N 38°52' W 077°01'0 0.0
2017-Dec-15 12:30N 38°52' W 077°01'0 0.0
2017-Dec-15 11:57N 38°52' W 077°01'0 0.0
2017-Dec-15 11:29N 38°52' W 077°01'0 0.0
2017-Dec-15 10:57N 38°52' W 077°01'0 0.0
2017-Dec-15 10:30N 38°52' W 077°01'0 0.0
2017-Dec-15 09:57N 38°52' W 077°01'0 0.0
2017-Dec-15 09:25N 38°52' W 077°01'0 0.0
2017-Dec-15 08:57N 38°52' W 077°01'0 0.0
2017-Dec-15 08:26N 38°52' W 077°01'0 0.0
2017-Dec-15 07:57N 38°52' W 077°01'0 0.0
2017-Dec-15 07:29N 38°52' W 077°01'0 0.0
2017-Dec-15 06:57N 38°52' W 077°01'0 0.0
2017-Dec-15 06:27N 38°52' W 077°01'0 0.0
2017-Dec-15 05:55N 38°52' W 077°01'0 0.0
2017-Dec-15 05:28N 38°52' W 077°01'0 0.0
2017-Dec-15 04:51N 38°52' W 077°01'0 0.0
2017-Dec-15 04:27N 38°52' W 077°01'0 0.0
2017-Dec-15 03:58N 38°52' W 077°01'1 0.5
2017-Dec-15 02:29N 38°52' W 077°02'2 1.5
2017-Dec-15 01:00N 38°50' W 077°02'2 4.1
2017-Dec-15 00:29N 38°52' W 077°01'1 0.2
2017-Dec-14 18:30N 38°51' W 077°01'3 6.0
2017-Dec-14 17:59N 38°48' W 077°02'3 6.4
2017-Dec-14 17:29N 38°51' W 077°01'2 3.3
2017-Dec-14 16:59N 38°52' W 077°01'0 0.0
2017-Dec-14 16:28N 38°52' W 077°01'0 0.0
2017-Dec-14 15:58N 38°52' W 077°01'0 0.0
2017-Dec-14 15:00N 38°52' W 077°01'0 0.0
2017-Dec-14 14:28N 38°52' W 077°01'0 0.0
2017-Dec-14 13:58N 38°52' W 077°01'0 0.0
2017-Dec-14 13:28N 38°52' W 077°01'0 0.0
2017-Dec-14 12:58N 38°52' W 077°01'0 0.0
2017-Dec-14 12:28N 38°52' W 077°01'0 0.0
2017-Dec-14 11:58N 38°52' W 077°01'0 0.0
2017-Dec-14 11:28N 38°52' W 077°01'0 0.0
2017-Dec-14 10:58N 38°52' W 077°01'0 0.0
2017-Dec-14 10:28N 38°52' W 077°01'0 0.0
2017-Dec-14 09:58N 38°52' W 077°01'0 0.0
2017-Dec-14 09:28N 38°52' W 077°01'0 0.0
2017-Dec-14 08:58N 38°52' W 077°01'0 0.0
2017-Dec-14 08:28N 38°52' W 077°01'0 0.0
2017-Dec-14 08:00N 38°52' W 077°01'0 0.0
2017-Dec-14 07:30N 38°52' W 077°01'0 0.0
2017-Dec-14 07:00N 38°52' W 077°01'0 0.0
2017-Dec-14 06:30N 38°52' W 077°01'0 0.0
2017-Dec-14 06:00N 38°52' W 077°01'0 0.0
2017-Dec-14 05:30N 38°52' W 077°01'0 0.0
2017-Dec-14 05:00N 38°52' W 077°01'0 0.0
2017-Dec-14 04:30N 38°52' W 077°01'0 0.0
2017-Dec-14 04:00N 38°52' W 077°01'0 0.0
2017-Dec-14 03:29N 38°52' W 077°01'0 0.0
2017-Dec-14 02:59N 38°52' W 077°01'1 2.7
2017-Dec-14 02:28N 38°51' W 077°01'1 3.2
2017-Dec-14 02:00N 38°50' W 077°02'2 3.2
2017-Dec-14 01:29N 38°48' W 077°02'2 3.1
2017-Dec-14 01:00N 38°49' W 077°02'2 4.0
2017-Dec-14 00:27N 38°52' W 077°01'1 1.4
2017-Dec-13 23:52N 38°52' W 077°01'0 0.0
2017-Dec-13 23:28N 38°52' W 077°01'0 0.0
2017-Dec-13 22:58N 38°52' W 077°01'0 0.0
2017-Dec-13 22:28N 38°52' W 077°01'0 0.0
2017-Dec-13 21:58N 38°52' W 077°01'0 0.0
2017-Dec-13 21:28N 38°52' W 077°01'0 0.0
2017-Dec-13 20:58N 38°52' W 077°01'0 0.0
2017-Dec-13 20:28N 38°52' W 077°01'0 0.0
2017-Dec-13 19:58N 38°52' W 077°01'0 0.0
2017-Dec-13 19:28N 38°52' W 077°01'0 0.1
2017-Dec-13 18:49N 38°52' W 077°01'1 2.2
2017-Dec-13 18:28N 38°52' W 077°01'4 8.8
2017-Dec-13 17:59N 38°47' W 077°02'2 3.7
2017-Dec-13 17:30N 38°49' W 077°02'3 5.9
2017-Dec-13 16:56N 38°52' W 077°01'0 0.0
2017-Dec-13 16:30N 38°52' W 077°01'0 0.0
2017-Dec-13 16:00N 38°52' W 077°01'0 0.0
2017-Dec-13 15:26N 38°52' W 077°01'0 0.0
2017-Dec-13 15:01N 38°52' W 077°01'0 0.0
2017-Dec-13 14:30N 38°52' W 077°01'0 0.0
2017-Dec-13 13:59N 38°52' W 077°01'0 0.0
2017-Dec-13 13:23N 38°52' W 077°01'0 0.0
2017-Dec-13 12:46N 38°52' W 077°01'0 0.0
2017-Dec-13 12:30N 38°52' W 077°01'0 0.0
2017-Dec-13 11:58N 38°52' W 077°01'0 0.0
2017-Dec-13 11:26N 38°52' W 077°01'0 0.0
2017-Dec-13 10:52N 38°52' W 077°01'0 0.0
2017-Dec-13 10:28N 38°52' W 077°01'0 0.0
2017-Dec-13 10:00N 38°52' W 077°01'0 0.0
2017-Dec-13 09:28N 38°52' W 077°01'0 0.0
2017-Dec-13 08:54N 38°52' W 077°01'0 0.0
2017-Dec-13 08:22N 38°52' W 077°01'0 0.0
2017-Dec-13 07:58N 38°52' W 077°01'0 0.0
2017-Dec-13 07:26N 38°52' W 077°01'0 0.0
2017-Dec-13 06:56N 38°52' W 077°01'0 0.0
2017-Dec-13 06:27N 38°52' W 077°01'0 0.0
2017-Dec-13 05:57N 38°52' W 077°01'0 0.0
2017-Dec-13 05:27N 38°52' W 077°01'0 0.0
2017-Dec-13 04:49N 38°52' W 077°01'0 0.0
2017-Dec-13 04:30N 38°52' W 077°01'0 0.0
2017-Dec-13 03:52N 38°52' W 077°01'0 0.0
2017-Dec-13 03:26N 38°52' W 077°01'0 0.0
2017-Dec-13 03:00N 38°52' W 077°01'0 0.0
2017-Dec-13 02:26N 38°52' W 077°01'0 0.0
2017-Dec-13 01:59N 38°52' W 077°01'0 0.0
2017-Dec-13 01:29N 38°52' W 077°01'0 0.0
2017-Dec-13 00:54N 38°52' W 077°01'0 0.0
2017-Dec-13 00:30N 38°52' W 077°01'0 0.0
2017-Dec-12 23:59N 38°52' W 077°01'0 0.0
2017-Dec-12 23:25N 38°52' W 077°01'0 0.0
2017-Dec-12 22:55N 38°52' W 077°01'0 0.0
2017-Dec-12 22:29N 38°52' W 077°01'0 0.0
2017-Dec-12 21:59N 38°52' W 077°01'0 0.0
2017-Dec-12 21:26N 38°52' W 077°01'0 0.0
2017-Dec-12 20:57N 38°52' W 077°01'0 0.0
2017-Dec-12 20:29N 38°52' W 077°01'0 0.0
2017-Dec-12 20:00N 38°52' W 077°01'0 0.0
2017-Dec-12 19:27N 38°52' W 077°01'0 0.0
2017-Dec-12 18:54N 38°52' W 077°01'1 2.9
2017-Dec-12 18:27N 38°51' W 077°01'4 8.7
2017-Dec-12 18:00N 38°47' W 077°02'3 5.9
2017-Dec-12 17:31N 38°50' W 077°02'2 4.5
2017-Dec-12 16:58N 38°52' W 077°01'0 0.0
2017-Dec-12 16:28N 38°52' W 077°01'0 0.0
2017-Dec-12 15:58N 38°52' W 077°01'0 0.0
2017-Dec-12 15:29N 38°52' W 077°01'0 0.0
2017-Dec-12 14:58N 38°52' W 077°01'0 0.0
2017-Dec-12 14:29N 38°52' W 077°01'0 0.0
2017-Dec-12 13:55N 38°52' W 077°01'0 0.0
2017-Dec-12 13:28N 38°52' W 077°01'0 0.0
2017-Dec-12 12:59N 38°52' W 077°01'0 0.0
2017-Dec-12 12:29N 38°52' W 077°01'0 0.0
2017-Dec-12 11:59N 38°52' W 077°01'0 0.0
2017-Dec-12 11:29N 38°52' W 077°01'0 0.0
2017-Dec-12 10:59N 38°52' W 077°01'0 0.0
2017-Dec-12 10:30N 38°52' W 077°01'0 0.0
2017-Dec-12 09:59N 38°52' W 077°01'0 0.0
2017-Dec-12 09:29N 38°52' W 077°01'0 0.0
2017-Dec-12 08:59N 38°52' W 077°01'0 0.0
2017-Dec-12 08:30N 38°52' W 077°01'0 0.0
2017-Dec-12 07:57N 38°52' W 077°01'0 0.0
2017-Dec-12 07:29N 38°52' W 077°01'0 0.0
2017-Dec-12 06:59N 38°52' W 077°01'0 0.0
2017-Dec-12 06:29N 38°52' W 077°01'0 0.0
2017-Dec-12 05:53N 38°52' W 077°01'0 0.0
2017-Dec-12 05:29N 38°52' W 077°01'0 0.0
2017-Dec-12 04:59N 38°52' W 077°01'0 0.0
2017-Dec-12 04:29N 38°52' W 077°01'0 0.0
2017-Dec-12 04:00N 38°52' W 077°01'0 0.0
2017-Dec-12 03:30N 38°52' W 077°01'0 0.0
2017-Dec-12 03:00N 38°52' W 077°01'0 0.0
2017-Dec-12 02:30N 38°52' W 077°01'0 0.0
2017-Dec-12 02:00N 38°52' W 077°01'0 0.0
2017-Dec-12 01:29N 38°52' W 077°01'0 0.0
2017-Dec-12 00:59N 38°52' W 077°01'0 0.0
2017-Dec-12 00:28N 38°52' W 077°01'0 0.0
2017-Dec-11 23:58N 38°52' W 077°01'0 0.0
2017-Dec-11 23:28N 38°52' W 077°01'0 0.0
2017-Dec-11 22:58N 38°52' W 077°01'0 0.0
2017-Dec-11 22:28N 38°52' W 077°01'0 0.0
2017-Dec-11 21:58N 38°52' W 077°01'0 0.0
2017-Dec-11 21:28N 38°52' W 077°01'0 0.0
2017-Dec-11 20:58N 38°52' W 077°01'0 0.0
2017-Dec-11 20:28N 38°52' W 077°01'0 0.0
2017-Dec-11 19:58N 38°52' W 077°01'0 0.0
2017-Dec-11 19:28N 38°52' W 077°01'0 0.0
2017-Dec-11 18:58N 38°52' W 077°01'0 0.1
2017-Dec-11 18:29N 38°52' W 077°01'0 0.1
2017-Dec-11 17:58N 38°52' W 077°01'0 0.0
2017-Dec-11 17:28N 38°52' W 077°01'0 0.0
2017-Dec-11 16:57N 38°52' W 077°01'0 0.0
2017-Dec-11 16:30N 38°52' W 077°01'0 0.0
2017-Dec-11 15:57N 38°52' W 077°01'0 0.0
2017-Dec-11 15:27N 38°52' W 077°01'0 0.0
2017-Dec-11 15:00N 38°52' W 077°01'0 0.0
2017-Dec-11 14:30N 38°52' W 077°01'0 0.0
2017-Dec-11 14:00N 38°52' W 077°01'0 0.0
2017-Dec-11 13:24N 38°52' W 077°01'0 0.0
2017-Dec-11 13:00N 38°52' W 077°01'0 0.0
2017-Dec-11 12:30N 38°52' W 077°01'0 0.0
2017-Dec-11 12:00N 38°52' W 077°01'0 0.0
2017-Dec-11 11:30N 38°52' W 077°01'0 0.0
2017-Dec-11 11:00N 38°52' W 077°01'0 0.0
2017-Dec-11 10:30N 38°52' W 077°01'0 0.0
2017-Dec-11 10:00N 38°52' W 077°01'0 0.0
2017-Dec-11 09:30N 38°52' W 077°01'0 0.0
2017-Dec-11 09:00N 38°52' W 077°01'0 0.0
2017-Dec-11 08:30N 38°52' W 077°01'0 0.0
2017-Dec-11 08:00N 38°52' W 077°01'0 0.0
2017-Dec-11 07:30N 38°52' W 077°01'0 0.0
2017-Dec-11 07:00N 38°52' W 077°01'0 0.0
2017-Dec-11 06:30N 38°52' W 077°01'0 0.0
2017-Dec-11 06:00N 38°52' W 077°01'0 0.0
2017-Dec-11 05:30N 38°52' W 077°01'0 0.0
2017-Dec-11 05:00N 38°52' W 077°01'0 0.0
2017-Dec-11 04:30N 38°52' W 077°01'0 0.0
2017-Dec-11 04:00N 38°52' W 077°01'0 0.0
2017-Dec-11 03:30N 38°52' W 077°01'0 0.0
2017-Dec-11 02:57N 38°52' W 077°01'1 2.9
2017-Dec-11 02:27N 38°51' W 077°01'3 6.5
2017-Dec-11 01:59N 38°48' W 077°02'1 2.9
2017-Dec-11 01:29N 38°47' W 077°02'2 4.4
2017-Dec-11 00:59N 38°49' W 077°02'2 5.1
2017-Dec-11 00:30N 38°51' W 077°01'1 2.6
2017-Dec-10 23:59N 38°52' W 077°01'0 0.0
2017-Dec-10 23:29N 38°52' W 077°01'0 0.0
2017-Dec-10 22:59N 38°52' W 077°01'0 0.0
2017-Dec-10 22:29N 38°52' W 077°01'0 0.0
2017-Dec-10 21:59N 38°52' W 077°01'0 0.0
2017-Dec-10 21:29N 38°52' W 077°01'0 0.0
2017-Dec-10 20:59N 38°52' W 077°01'0 0.0
2017-Dec-10 20:29N 38°52' W 077°01'0 0.0
2017-Dec-10 19:59N 38°52' W 077°01'0 0.0
2017-Dec-10 19:29N 38°52' W 077°01'0 0.0
2017-Dec-10 18:59N 38°52' W 077°01'0 0.0
2017-Dec-10 18:29N 38°52' W 077°01'2 3.3
2017-Dec-10 18:00N 38°51' W 077°01'4 6.5
2017-Dec-10 17:27N 38°47' W 077°02'3 5.9
2017-Dec-10 16:59N 38°50' W 077°02'2 5.1
2017-Dec-10 16:30N 38°52' W 077°01'0 0.0
2017-Dec-10 16:00N 38°52' W 077°01'0 0.0
2017-Dec-10 15:30N 38°52' W 077°01'0 0.0
2017-Dec-10 15:00N 38°52' W 077°01'0 0.0
2017-Dec-10 14:30N 38°52' W 077°01'0 0.0
2017-Dec-10 14:00N 38°52' W 077°01'0 0.0
2017-Dec-10 13:30N 38°52' W 077°01'0 0.0
2017-Dec-10 13:00N 38°52' W 077°01'0 0.0
2017-Dec-10 12:30N 38°52' W 077°01'0 0.0
2017-Dec-10 12:00N 38°52' W 077°01'0 0.0
2017-Dec-10 11:30N 38°52' W 077°01'0 0.0
2017-Dec-10 11:00N 38°52' W 077°01'0 0.0
2017-Dec-10 10:30N 38°52' W 077°01'0 0.0
2017-Dec-10 09:57N 38°52' W 077°01'0 0.0
2017-Dec-10 09:30N 38°52' W 077°01'0 0.0
2017-Dec-10 09:00N 38°52' W 077°01'0 0.0
2017-Dec-10 08:30N 38°52' W 077°01'0 0.0
2017-Dec-10 08:00N 38°52' W 077°01'0 0.0
2017-Dec-10 07:30N 38°52' W 077°01'0 0.0
2017-Dec-10 07:00N 38°52' W 077°01'0 0.0
2017-Dec-10 06:30N 38°52' W 077°01'0 0.0
2017-Dec-10 05:57N 38°52' W 077°01'0 0.0
2017-Dec-10 05:30N 38°52' W 077°01'0 0.0
2017-Dec-10 05:00N 38°52' W 077°01'0 0.0
2017-Dec-10 04:30N 38°52' W 077°01'0 0.0
2017-Dec-10 04:00N 38°52' W 077°01'2 4.4
2017-Dec-10 03:28N 38°50' W 077°02'3 7.0
2017-Dec-10 03:00N 38°47' W 077°02'1 2.4
2017-Dec-10 02:28N 38°48' W 077°02'2 5.1
2017-Dec-10 02:00N 38°50' W 077°01'2 3.5
2017-Dec-10 01:31N 38°52' W 077°01'0 0.6
2017-Dec-10 00:56N 38°52' W 077°01'0 0.0
2017-Dec-10 00:29N 38°52' W 077°01'0 0.0
2017-Dec-09 23:59N 38°52' W 077°01'0 0.0
2017-Dec-09 23:29N 38°52' W 077°01'0 0.0
2017-Dec-09 22:59N 38°52' W 077°01'0 0.0
2017-Dec-09 22:28N 38°52' W 077°01'0 0.0
2017-Dec-09 21:59N 38°52' W 077°01'0 0.0
2017-Dec-09 21:26N 38°52' W 077°01'0 0.0
2017-Dec-09 20:59N 38°52' W 077°01'0 0.0
2017-Dec-09 20:29N 38°52' W 077°01'0 0.0
2017-Dec-09 19:59N 38°52' W 077°01'0 0.0
2017-Dec-09 19:30N 38°52' W 077°01'0 0.0
2017-Dec-09 18:59N 38°52' W 077°01'0 0.0
2017-Dec-09 18:29N 38°52' W 077°01'2 3.7
2017-Dec-09 18:00N 38°51' W 077°01'3 6.7
2017-Dec-09 17:30N 38°47' W 077°02'3 6.1
2017-Dec-09 17:00N 38°51' W 077°01'2 3.9
2017-Dec-09 16:30N 38°52' W 077°01'0 0.0
2017-Dec-09 15:59N 38°52' W 077°01'0 0.0
2017-Dec-09 15:30N 38°52' W 077°01'0 0.0
2017-Dec-09 14:59N 38°52' W 077°01'0 0.0
2017-Dec-09 14:29N 38°52' W 077°01'0 0.0
2017-Dec-09 13:59N 38°52' W 077°01'0 0.0
2017-Dec-09 13:30N 38°52' W 077°01'0 0.0
2017-Dec-09 12:58N 38°52' W 077°01'0 0.0
2017-Dec-09 12:29N 38°52' W 077°01'0 0.0
2017-Dec-09 11:56N 38°52' W 077°01'0 0.0
2017-Dec-09 11:29N 38°52' W 077°01'0 0.0
2017-Dec-09 10:59N 38°52' W 077°01'0 0.0
2017-Dec-09 10:28N 38°52' W 077°01'0 0.0
2017-Dec-09 09:59N 38°52' W 077°01'0 0.0
2017-Dec-09 09:29N 38°52' W 077°01'0 0.0
2017-Dec-09 09:00N 38°52' W 077°01'0 0.0
2017-Dec-09 08:29N 38°52' W 077°01'0 0.0
2017-Dec-09 07:59N 38°52' W 077°01'0 0.0
2017-Dec-09 07:30N 38°52' W 077°01'0 0.0
2017-Dec-09 06:59N 38°52' W 077°01'0 0.0
2017-Dec-09 06:29N 38°52' W 077°01'0 0.0
2017-Dec-09 05:59N 38°52' W 077°01'0 0.0
2017-Dec-09 05:29N 38°52' W 077°01'0 0.0
2017-Dec-09 04:56N 38°52' W 077°01'0 0.0
2017-Dec-09 04:29N 38°52' W 077°01'0 0.1
2017-Dec-09 03:57N 38°52' W 077°01'2 5.2
2017-Dec-09 03:29N 38°50' W 077°02'3 7.1
2017-Dec-09 03:00N 38°47' W 077°02'1 1.4
2017-Dec-09 02:29N 38°47' W 077°02'2 3.4
2017-Dec-09 02:00N 38°49' W 077°02'2 5.1
2017-Dec-09 01:30N 38°51' W 077°01'1 1.9
2017-Dec-09 00:59N 38°52' W 077°01'0 0.0
2017-Dec-09 00:29N 38°52' W 077°01'0 0.0
2017-Dec-08 23:59N 38°52' W 077°01'0 0.0
2017-Dec-08 23:29N 38°52' W 077°01'0 0.0
2017-Dec-08 22:58N 38°52' W 077°01'0 0.0
2017-Dec-08 22:23N 38°52' W 077°01'0 0.0
2017-Dec-08 21:58N 38°52' W 077°01'0 0.0
2017-Dec-08 21:25N 38°52' W 077°01'0 0.0
2017-Dec-08 20:59N 38°52' W 077°01'0 0.0
2017-Dec-08 20:25N 38°52' W 077°01'0 0.0
2017-Dec-08 19:49N 38°52' W 077°01'0 0.0
2017-Dec-08 19:29N 38°52' W 077°01'0 0.0
2017-Dec-08 19:01N 38°52' W 077°01'0 0.0
2017-Dec-08 18:30N 38°52' W 077°01'2 3.6
2017-Dec-08 17:59N 38°51' W 077°01'3 5.4
2017-Dec-08 17:28N 38°48' W 077°02'4 7.2
2017-Dec-08 16:53N 38°52' W 077°01'0 1.1
2017-Dec-08 16:28N 38°52' W 077°01'0 0.0
2017-Dec-08 15:48N 38°52' W 077°01'0 0.0
2017-Dec-08 15:28N 38°52' W 077°01'0 0.0
2017-Dec-08 14:56N 38°52' W 077°01'0 0.0
2017-Dec-08 14:26N 38°52' W 077°01'0 0.0
2017-Dec-08 14:00N 38°52' W 077°01'0 0.0
2017-Dec-08 13:26N 38°52' W 077°01'0 0.0
2017-Dec-08 13:00N 38°52' W 077°01'0 0.0
2017-Dec-08 12:24N 38°52' W 077°01'0 0.0
2017-Dec-08 12:00N 38°52' W 077°01'0 0.0
2017-Dec-08 11:28N 38°52' W 077°01'0 0.0
2017-Dec-08 10:56N 38°52' W 077°01'0 0.0
2017-Dec-08 10:27N 38°52' W 077°01'0 0.0
2017-Dec-08 09:59N 38°52' W 077°01'0 0.0
2017-Dec-08 09:30N 38°52' W 077°01'0 0.0
2017-Dec-08 09:00N 38°52' W 077°01'0 0.0
2017-Dec-08 08:26N 38°52' W 077°01'0 0.0
2017-Dec-08 07:50N 38°52' W 077°01'0 0.0
2017-Dec-08 07:26N 38°52' W 077°01'0 0.0
2017-Dec-08 07:00N 38°52' W 077°01'0 0.0
2017-Dec-08 06:22N 38°52' W 077°01'0 0.0
2017-Dec-08 06:00N 38°52' W 077°01'0 0.0
2017-Dec-08 05:29N 38°52' W 077°01'0 0.0
2017-Dec-08 04:51N 38°52' W 077°01'0 0.0
2017-Dec-08 04:25N 38°52' W 077°01'0 0.0
2017-Dec-08 03:49N 38°52' W 077°01'0 0.0
2017-Dec-08 03:19N 38°52' W 077°01'0 0.0
2017-Dec-08 02:58N 38°52' W 077°01'1 2.5
2017-Dec-08 02:30N 38°51' W 077°01'3 7.0
2017-Dec-08 02:00N 38°48' W 077°02'1 1.5
2017-Dec-08 01:30N 38°49' W 077°02'3 5.4
2017-Dec-08 01:00N 38°51' W 077°01'0 0.1
2017-Dec-08 00:30N 38°51' W 077°01'1 2.5
2017-Dec-08 00:00N 38°52' W 077°01'0 0.0
2017-Dec-07 23:11N 38°52' W 077°01'0 0.0
2017-Dec-07 22:59N 38°52' W 077°01'0 0.0
2017-Dec-07 22:29N 38°52' W 077°01'0 0.0
2017-Dec-07 21:59N 38°52' W 077°01'0 0.0
2017-Dec-07 21:27N 38°52' W 077°01'0 0.0
2017-Dec-07 20:53N 38°52' W 077°01'0 0.0
2017-Dec-07 20:25N 38°52' W 077°01'0 0.0
2017-Dec-07 20:00N 38°52' W 077°01'0 0.0
2017-Dec-07 19:29N 38°52' W 077°01'0 0.0
2017-Dec-07 18:53N 38°52' W 077°01'1 3.7
2017-Dec-07 18:30N 38°51' W 077°01'4 6.9
2017-Dec-07 17:59N 38°48' W 077°02'2 4.8
2017-Dec-07 17:29N 38°50' W 077°02'2 4.1
2017-Dec-07 16:53N 38°52' W 077°01'0 0.0
2017-Dec-07 16:25N 38°52' W 077°01'0 0.0
2017-Dec-07 16:00N 38°52' W 077°01'0 0.0
2017-Dec-07 15:27N 38°52' W 077°01'0 0.0
2017-Dec-07 14:53N 38°52' W 077°01'0 0.0
2017-Dec-07 14:30N 38°52' W 077°01'0 0.0
2017-Dec-07 13:59N 38°52' W 077°01'0 0.0
2017-Dec-07 13:27N 38°52' W 077°01'0 0.0
2017-Dec-07 13:00N 38°52' W 077°01'0 0.0
2017-Dec-07 12:28N 38°52' W 077°01'0 0.0
2017-Dec-07 11:56N 38°52' W 077°01'0 0.0
2017-Dec-07 11:16N 38°52' W 077°01'0 0.0
2017-Dec-07 11:00N 38°52' W 077°01'0 0.0
2017-Dec-07 10:31N 38°52' W 077°01'0 0.0
2017-Dec-07 10:00N 38°52' W 077°01'0 0.0
2017-Dec-07 09:29N 38°52' W 077°01'0 0.0
2017-Dec-07 08:59N 38°52' W 077°01'0 0.0
2017-Dec-07 08:25N 38°52' W 077°01'0 0.0
2017-Dec-07 07:59N 38°52' W 077°01'0 0.0
2017-Dec-07 07:29N 38°52' W 077°01'0 0.0
2017-Dec-07 06:59N 38°52' W 077°01'0 0.0
2017-Dec-07 06:27N 38°52' W 077°01'0 0.0
2017-Dec-07 05:55N 38°52' W 077°01'0 0.0
2017-Dec-07 05:25N 38°52' W 077°01'0 0.0
2017-Dec-07 04:57N 38°52' W 077°01'0 0.0
2017-Dec-07 04:30N 38°52' W 077°01'0 0.0
2017-Dec-07 03:56N 38°52' W 077°01'0 0.0
2017-Dec-07 03:28N 38°52' W 077°01'0 0.0
2017-Dec-07 02:58N 38°52' W 077°01'0 0.0
2017-Dec-07 02:24N 38°52' W 077°01'0 0.0
2017-Dec-07 02:00N 38°52' W 077°01'0 0.0
2017-Dec-07 01:30N 38°52' W 077°01'0 0.0
2017-Dec-07 01:00N 38°52' W 077°01'0 0.0
2017-Dec-07 00:18N 38°52' W 077°01'0 0.0
2017-Dec-06 23:56N 38°52' W 077°01'0 0.0
2017-Dec-06 23:30N 38°52' W 077°01'0 0.0
2017-Dec-06 22:57N 38°52' W 077°01'0 0.0
2017-Dec-06 22:30N 38°52' W 077°01'0 0.0
2017-Dec-06 21:59N 38°52' W 077°01'0 0.0
2017-Dec-06 21:29N 38°52' W 077°01'0 0.0
2017-Dec-06 20:58N 38°52' W 077°01'  
Track history (hours):
 
Tides and Currents Weather Stations Pressure Air Temp Water Temp Dewpoint Dewpoint Depression Visibility Wind Speed Wind Dir Waves Ship Positions

Spirit Of Washington

Owner: SPIRIT CRUISES LLC, Washington, DC. More information available from US FCC via Universal Licensing System and Coast Guard Vessel Documentation Center.

Last reported at 2017-Dec-15 23:29 UTC. Time now 2017-Dec-15 23:31 UTC.
Position N 38°52' W 077°01'.

Length 47 m; draft 2.1 m.

Type: Passenger vessel. MMSI: 367096310.

Date/timePositionNaut miles runAvg speedWind from/ knotsBaromVisibWave heightAir tempDewpointWater temp
2017-Dec-15 23:29N 38°52' W 077°01'0 0.0
2017-Dec-15 22:59N 38°52' W 077°01'0 0.0
2017-Dec-15 22:29N 38°52' W 077°01'0 0.0
2017-Dec-15 21:59N 38°52' W 077°01'0 0.0
2017-Dec-15 21:29N 38°52' W 077°01'0 0.0
2017-Dec-15 20:57N 38°52' W 077°01'0 0.0
2017-Dec-15 20:30N 38°52' W 077°01'0 0.0
2017-Dec-15 19:54N 38°52' W 077°01'0 0.0
2017-Dec-15 19:30N 38°52' W 077°01'0 0.0
2017-Dec-15 19:00N 38°52' W 077°01'0 0.0
2017-Dec-15 18:28N 38°52' W 077°01'2 3.6
2017-Dec-15 18:00N 38°51' W 077°01'4 7.0
2017-Dec-15 17:29N 38°47' W 077°02'3 6.3
2017-Dec-15 17:00N 38°50' W 077°02'2 4.5
2017-Dec-15 16:28N 38°52' W 077°01'0 0.0
2017-Dec-15 15:56N 38°52' W 077°01'0 0.0
2017-Dec-15 15:29N 38°52' W 077°01'0 0.0
2017-Dec-15 14:48N 38°52' W 077°01'0 0.0
2017-Dec-15 14:30N 38°52' W 077°01'0 0.0
2017-Dec-15 13:56N 38°52' W 077°01'0 0.0
2017-Dec-15 13:27N 38°52' W 077°01'0 0.0
2017-Dec-15 12:59N 38°52' W 077°01'0 0.0
2017-Dec-15 12:30N 38°52' W 077°01'0 0.0
2017-Dec-15 11:57N 38°52' W 077°01'0 0.0
2017-Dec-15 11:29N 38°52' W 077°01'0 0.0
2017-Dec-15 10:57N 38°52' W 077°01'0 0.0
2017-Dec-15 10:30N 38°52' W 077°01'0 0.0
2017-Dec-15 09:57N 38°52' W 077°01'0 0.0
2017-Dec-15 09:25N 38°52' W 077°01'0 0.0
2017-Dec-15 08:57N 38°52' W 077°01'0 0.0
2017-Dec-15 08:26N 38°52' W 077°01'0 0.0
2017-Dec-15 07:57N 38°52' W 077°01'0 0.0
2017-Dec-15 07:29N 38°52' W 077°01'0 0.0
2017-Dec-15 06:57N 38°52' W 077°01'0 0.0
2017-Dec-15 06:27N 38°52' W 077°01'0 0.0
2017-Dec-15 05:55N 38°52' W 077°01'0 0.0
2017-Dec-15 05:28N 38°52' W 077°01'0 0.0
2017-Dec-15 04:51N 38°52' W 077°01'0 0.0
2017-Dec-15 04:27N 38°52' W 077°01'0 0.0
2017-Dec-15 03:58N 38°52' W 077°01'1 0.5
2017-Dec-15 02:29N 38°52' W 077°02'2 1.5
2017-Dec-15 01:00N 38°50' W 077°02'2 4.1
2017-Dec-15 00:29N 38°52' W 077°01'1 0.2
2017-Dec-14 18:30N 38°51' W 077°01'3 6.0
2017-Dec-14 17:59N 38°48' W 077°02'3 6.4
2017-Dec-14 17:29N 38°51' W 077°01'2 3.3
2017-Dec-14 16:59N 38°52' W 077°01'0 0.0
2017-Dec-14 16:28N 38°52' W 077°01'0 0.0
2017-Dec-14 15:58N 38°52' W 077°01'0 0.0
2017-Dec-14 15:00N 38°52' W 077°01'0 0.0
2017-Dec-14 14:28N 38°52' W 077°01'0 0.0
2017-Dec-14 13:58N 38°52' W 077°01'0 0.0
2017-Dec-14 13:28N 38°52' W 077°01'0 0.0
2017-Dec-14 12:58N 38°52' W 077°01'0 0.0
2017-Dec-14 12:28N 38°52' W 077°01'0 0.0
2017-Dec-14 11:58N 38°52' W 077°01'0 0.0
2017-Dec-14 11:28N 38°52' W 077°01'0 0.0
2017-Dec-14 10:58N 38°52' W 077°01'0 0.0
2017-Dec-14 10:28N 38°52' W 077°01'0 0.0
2017-Dec-14 09:58N 38°52' W 077°01'0 0.0
2017-Dec-14 09:28N 38°52' W 077°01'0 0.0
2017-Dec-14 08:58N 38°52' W 077°01'0 0.0
2017-Dec-14 08:28N 38°52' W 077°01'0 0.0
2017-Dec-14 08:00N 38°52' W 077°01'0 0.0
2017-Dec-14 07:30N 38°52' W 077°01'0 0.0
2017-Dec-14 07:00N 38°52' W 077°01'0 0.0
2017-Dec-14 06:30N 38°52' W 077°01'0 0.0
2017-Dec-14 06:00N 38°52' W 077°01'0 0.0
2017-Dec-14 05:30N 38°52' W 077°01'0 0.0
2017-Dec-14 05:00N 38°52' W 077°01'0 0.0
2017-Dec-14 04:30N 38°52' W 077°01'0 0.0
2017-Dec-14 04:00N 38°52' W 077°01'0 0.0
2017-Dec-14 03:29N 38°52' W 077°01'0 0.0
2017-Dec-14 02:59N 38°52' W 077°01'1 2.7
2017-Dec-14 02:28N 38°51' W 077°01'1 3.2
2017-Dec-14 02:00N 38°50' W 077°02'2 3.2
2017-Dec-14 01:29N 38°48' W 077°02'2 3.1
2017-Dec-14 01:00N 38°49' W 077°02'2 4.0
2017-Dec-14 00:27N 38°52' W 077°01'1 1.4
2017-Dec-13 23:52N 38°52' W 077°01'0 0.0
2017-Dec-13 23:28N 38°52' W 077°01'0 0.0
2017-Dec-13 22:58N 38°52' W 077°01'0 0.0
2017-Dec-13 22:28N 38°52' W 077°01'0 0.0
2017-Dec-13 21:58N 38°52' W 077°01'0 0.0
2017-Dec-13 21:28N 38°52' W 077°01'0 0.0
2017-Dec-13 20:58N 38°52' W 077°01'0 0.0
2017-Dec-13 20:28N 38°52' W 077°01'0 0.0
2017-Dec-13 19:58N 38°52' W 077°01'0 0.0
2017-Dec-13 19:28N 38°52' W 077°01'0 0.1
2017-Dec-13 18:49N 38°52' W 077°01'1 2.2
2017-Dec-13 18:28N 38°52' W 077°01'4 8.8
2017-Dec-13 17:59N 38°47' W 077°02'2 3.7
2017-Dec-13 17:30N 38°49' W 077°02'3 5.9
2017-Dec-13 16:56N 38°52' W 077°01'0 0.0
2017-Dec-13 16:30N 38°52' W 077°01'0 0.0
2017-Dec-13 16:00N 38°52' W 077°01'0 0.0
2017-Dec-13 15:26N 38°52' W 077°01'0 0.0
2017-Dec-13 15:01N 38°52' W 077°01'0 0.0
2017-Dec-13 14:30N 38°52' W 077°01'0 0.0
2017-Dec-13 13:59N 38°52' W 077°01'0 0.0
2017-Dec-13 13:23N 38°52' W 077°01'0 0.0
2017-Dec-13 12:46N 38°52' W 077°01'0 0.0
2017-Dec-13 12:30N 38°52' W 077°01'0 0.0
2017-Dec-13 11:58N 38°52' W 077°01'0 0.0
2017-Dec-13 11:26N 38°52' W 077°01'0 0.0
2017-Dec-13 10:52N 38°52' W 077°01'0 0.0
2017-Dec-13 10:28N 38°52' W 077°01'0 0.0
2017-Dec-13 10:00N 38°52' W 077°01'0 0.0
2017-Dec-13 09:28N 38°52' W 077°01'0 0.0
2017-Dec-13 08:54N 38°52' W 077°01'0 0.0
2017-Dec-13 08:22N 38°52' W 077°01'0 0.0
2017-Dec-13 07:58N 38°52' W 077°01'0 0.0
2017-Dec-13 07:26N 38°52' W 077°01'0 0.0
2017-Dec-13 06:56N 38°52' W 077°01'0 0.0
2017-Dec-13 06:27N 38°52' W 077°01'0 0.0
2017-Dec-13 05:57N 38°52' W 077°01'0 0.0
2017-Dec-13 05:27N 38°52' W 077°01'0 0.0
2017-Dec-13 04:49N 38°52' W 077°01'0 0.0
2017-Dec-13 04:30N 38°52' W 077°01'0 0.0
2017-Dec-13 03:52N 38°52' W 077°01'0 0.0
2017-Dec-13 03:26N 38°52' W 077°01'0 0.0
2017-Dec-13 03:00N 38°52' W 077°01'0 0.0
2017-Dec-13 02:26N 38°52' W 077°01'0 0.0
2017-Dec-13 01:59N 38°52' W 077°01'0 0.0
2017-Dec-13 01:29N 38°52' W 077°01'0 0.0
2017-Dec-13 00:54N 38°52' W 077°01'0 0.0
2017-Dec-13 00:30N 38°52' W 077°01'0 0.0
2017-Dec-12 23:59N 38°52' W 077°01'0 0.0
2017-Dec-12 23:25N 38°52' W 077°01'0 0.0
2017-Dec-12 22:55N 38°52' W 077°01'0 0.0
2017-Dec-12 22:29N 38°52' W 077°01'0 0.0
2017-Dec-12 21:59N 38°52' W 077°01'0 0.0
2017-Dec-12 21:26N 38°52' W 077°01'0 0.0
2017-Dec-12 20:57N 38°52' W 077°01'0 0.0
2017-Dec-12 20:29N 38°52' W 077°01'0 0.0
2017-Dec-12 20:00N 38°52' W 077°01'0 0.0
2017-Dec-12 19:27N 38°52' W 077°01'0 0.0
2017-Dec-12 18:54N 38°52' W 077°01'1 2.9
2017-Dec-12 18:27N 38°51' W 077°01'4 8.7
2017-Dec-12 18:00N 38°47' W 077°02'3 5.9
2017-Dec-12 17:31N 38°50' W 077°02'2 4.5
2017-Dec-12 16:58N 38°52' W 077°01'0 0.0
2017-Dec-12 16:28N 38°52' W 077°01'0 0.0
2017-Dec-12 15:58N 38°52' W 077°01'0 0.0
2017-Dec-12 15:29N 38°52' W 077°01'0 0.0
2017-Dec-12 14:58N 38°52' W 077°01'0 0.0
2017-Dec-12 14:29N 38°52' W 077°01'0 0.0
2017-Dec-12 13:55N 38°52' W 077°01'0 0.0
2017-Dec-12 13:28N 38°52' W 077°01'0 0.0
2017-Dec-12 12:59N 38°52' W 077°01'0 0.0
2017-Dec-12 12:29N 38°52' W 077°01'0 0.0
2017-Dec-12 11:59N 38°52' W 077°01'0 0.0
2017-Dec-12 11:29N 38°52' W 077°01'0 0.0
2017-Dec-12 10:59N 38°52' W 077°01'0 0.0
2017-Dec-12 10:30N 38°52' W 077°01'0 0.0
2017-Dec-12 09:59N 38°52' W 077°01'0 0.0
2017-Dec-12 09:29N 38°52' W 077°01'0 0.0
2017-Dec-12 08:59N 38°52' W 077°01'0 0.0
2017-Dec-12 08:30N 38°52' W 077°01'0 0.0
2017-Dec-12 07:57N 38°52' W 077°01'0 0.0
2017-Dec-12 07:29N 38°52' W 077°01'0 0.0
2017-Dec-12 06:59N 38°52' W 077°01'0 0.0
2017-Dec-12 06:29N 38°52' W 077°01'0 0.0
2017-Dec-12 05:53N 38°52' W 077°01'0 0.0
2017-Dec-12 05:29N 38°52' W 077°01'0 0.0
2017-Dec-12 04:59N 38°52' W 077°01'0 0.0
2017-Dec-12 04:29N 38°52' W 077°01'0 0.0
2017-Dec-12 04:00N 38°52' W 077°01'0 0.0
2017-Dec-12 03:30N 38°52' W 077°01'0 0.0
2017-Dec-12 03:00N 38°52' W 077°01'0 0.0
2017-Dec-12 02:30N 38°52' W 077°01'0 0.0
2017-Dec-12 02:00N 38°52' W 077°01'0 0.0
2017-Dec-12 01:29N 38°52' W 077°01'0 0.0
2017-Dec-12 00:59N 38°52' W 077°01'0 0.0
2017-Dec-12 00:28N 38°52' W 077°01'0 0.0
2017-Dec-11 23:58N 38°52' W 077°01'0 0.0
2017-Dec-11 23:28N 38°52' W 077°01'0 0.0
2017-Dec-11 22:58N 38°52' W 077°01'0 0.0
2017-Dec-11 22:28N 38°52' W 077°01'0 0.0
2017-Dec-11 21:58N 38°52' W 077°01'0 0.0
2017-Dec-11 21:28N 38°52' W 077°01'0 0.0
2017-Dec-11 20:58N 38°52' W 077°01'0 0.0
2017-Dec-11 20:28N 38°52' W 077°01'0 0.0
2017-Dec-11 19:58N 38°52' W 077°01'0 0.0
2017-Dec-11 19:28N 38°52' W 077°01'0 0.0
2017-Dec-11 18:58N 38°52' W 077°01'0 0.1
2017-Dec-11 18:29N 38°52' W 077°01'0 0.1
2017-Dec-11 17:58N 38°52' W 077°01'0 0.0
2017-Dec-11 17:28N 38°52' W 077°01'0 0.0
2017-Dec-11 16:57N 38°52' W 077°01'0 0.0
2017-Dec-11 16:30N 38°52' W 077°01'0 0.0
2017-Dec-11 15:57N 38°52' W 077°01'0 0.0
2017-Dec-11 15:27N 38°52' W 077°01'0 0.0
2017-Dec-11 15:00N 38°52' W 077°01'0 0.0
2017-Dec-11 14:30N 38°52' W 077°01'0 0.0
2017-Dec-11 14:00N 38°52' W 077°01'0 0.0
2017-Dec-11 13:24N 38°52' W 077°01'0 0.0
2017-Dec-11 13:00N 38°52' W 077°01'0 0.0
2017-Dec-11 12:30N 38°52' W 077°01'0 0.0
2017-Dec-11 12:00N 38°52' W 077°01'0 0.0
2017-Dec-11 11:30N 38°52' W 077°01'0 0.0
2017-Dec-11 11:00N 38°52' W 077°01'0 0.0
2017-Dec-11 10:30N 38°52' W 077°01'0 0.0
2017-Dec-11 10:00N 38°52' W 077°01'0 0.0
2017-Dec-11 09:30N 38°52' W 077°01'0 0.0
2017-Dec-11 09:00N 38°52' W 077°01'0 0.0
2017-Dec-11 08:30N 38°52' W 077°01'0 0.0
2017-Dec-11 08:00N 38°52' W 077°01'0 0.0
2017-Dec-11 07:30N 38°52' W 077°01'0 0.0
2017-Dec-11 07:00N 38°52' W 077°01'0 0.0
2017-Dec-11 06:30N 38°52' W 077°01'0 0.0
2017-Dec-11 06:00N 38°52' W 077°01'0 0.0
2017-Dec-11 05:30N 38°52' W 077°01'0 0.0
2017-Dec-11 05:00N 38°52' W 077°01'0 0.0
2017-Dec-11 04:30N 38°52' W 077°01'0 0.0
2017-Dec-11 04:00N 38°52' W 077°01'0 0.0
2017-Dec-11 03:30N 38°52' W 077°01'0 0.0
2017-Dec-11 02:57N 38°52' W 077°01'1 2.9
2017-Dec-11 02:27N 38°51' W 077°01'3 6.5
2017-Dec-11 01:59N 38°48' W 077°02'1 2.9
2017-Dec-11 01:29N 38°47' W 077°02'2 4.4
2017-Dec-11 00:59N 38°49' W 077°02'2 5.1
2017-Dec-11 00:30N 38°51' W 077°01'1 2.6
2017-Dec-10 23:59N 38°52' W 077°01'0 0.0
2017-Dec-10 23:29N 38°52' W 077°01'0 0.0
2017-Dec-10 22:59N 38°52' W 077°01'0 0.0
2017-Dec-10 22:29N 38°52' W 077°01'0 0.0
2017-Dec-10 21:59N 38°52' W 077°01'0 0.0
2017-Dec-10 21:29N 38°52' W 077°01'0 0.0
2017-Dec-10 20:59N 38°52' W 077°01'0 0.0
2017-Dec-10 20:29N 38°52' W 077°01'0 0.0
2017-Dec-10 19:59N 38°52' W 077°01'0 0.0
2017-Dec-10 19:29N 38°52' W 077°01'0 0.0
2017-Dec-10 18:59N 38°52' W 077°01'0 0.0
2017-Dec-10 18:29N 38°52' W 077°01'2 3.3
2017-Dec-10 18:00N 38°51' W 077°01'4 6.5
2017-Dec-10 17:27N 38°47' W 077°02'3 5.9
2017-Dec-10 16:59N 38°50' W 077°02'2 5.1
2017-Dec-10 16:30N 38°52' W 077°01'0 0.0
2017-Dec-10 16:00N 38°52' W 077°01'0 0.0
2017-Dec-10 15:30N 38°52' W 077°01'0 0.0
2017-Dec-10 15:00N 38°52' W 077°01'0 0.0
2017-Dec-10 14:30N 38°52' W 077°01'0 0.0
2017-Dec-10 14:00N 38°52' W 077°01'0 0.0
2017-Dec-10 13:30N 38°52' W 077°01'0 0.0
2017-Dec-10 13:00N 38°52' W 077°01'0 0.0
2017-Dec-10 12:30N 38°52' W 077°01'0 0.0
2017-Dec-10 12:00N 38°52' W 077°01'0 0.0
2017-Dec-10 11:30N 38°52' W 077°01'0 0.0
2017-Dec-10 11:00N 38°52' W 077°01'0 0.0
2017-Dec-10 10:30N 38°52' W 077°01'0 0.0
2017-Dec-10 09:57N 38°52' W 077°01'0 0.0
2017-Dec-10 09:30N 38°52' W 077°01'0 0.0
2017-Dec-10 09:00N 38°52' W 077°01'0 0.0
2017-Dec-10 08:30N 38°52' W 077°01'0 0.0
2017-Dec-10 08:00N 38°52' W 077°01'0 0.0
2017-Dec-10 07:30N 38°52' W 077°01'0 0.0
2017-Dec-10 07:00N 38°52' W 077°01'0 0.0
2017-Dec-10 06:30N 38°52' W 077°01'0 0.0
2017-Dec-10 05:57N 38°52' W 077°01'0 0.0
2017-Dec-10 05:30N 38°52' W 077°01'0 0.0
2017-Dec-10 05:00N 38°52' W 077°01'0 0.0
2017-Dec-10 04:30N 38°52' W 077°01'0 0.0
2017-Dec-10 04:00N 38°52' W 077°01'2 4.4
2017-Dec-10 03:28N 38°50' W 077°02'3 7.0
2017-Dec-10 03:00N 38°47' W 077°02'1 2.4
2017-Dec-10 02:28N 38°48' W 077°02'2 5.1
2017-Dec-10 02:00N 38°50' W 077°01'2 3.5
2017-Dec-10 01:31N 38°52' W 077°01'0 0.6
2017-Dec-10 00:56N 38°52' W 077°01'0 0.0
2017-Dec-10 00:29N 38°52' W 077°01'0 0.0
2017-Dec-09 23:59N 38°52' W 077°01'0 0.0
2017-Dec-09 23:29N 38°52' W 077°01'0 0.0
2017-Dec-09 22:59N 38°52' W 077°01'0 0.0
2017-Dec-09 22:28N 38°52' W 077°01'0 0.0
2017-Dec-09 21:59N 38°52' W 077°01'0 0.0
2017-Dec-09 21:26N 38°52' W 077°01'0 0.0
2017-Dec-09 20:59N 38°52' W 077°01'0 0.0
2017-Dec-09 20:29N 38°52' W 077°01'0 0.0
2017-Dec-09 19:59N 38°52' W 077°01'0 0.0
2017-Dec-09 19:30N 38°52' W 077°01'0 0.0
2017-Dec-09 18:59N 38°52' W 077°01'0 0.0
2017-Dec-09 18:29N 38°52' W 077°01'2 3.7
2017-Dec-09 18:00N 38°51' W 077°01'3 6.7
2017-Dec-09 17:30N 38°47' W 077°02'3 6.1
2017-Dec-09 17:00N 38°51' W 077°01'2 3.9
2017-Dec-09 16:30N 38°52' W 077°01'0 0.0
2017-Dec-09 15:59N 38°52' W 077°01'0 0.0
2017-Dec-09 15:30N 38°52' W 077°01'0 0.0
2017-Dec-09 14:59N 38°52' W 077°01'0 0.0
2017-Dec-09 14:29N 38°52' W 077°01'0 0.0
2017-Dec-09 13:59N 38°52' W 077°01'0 0.0
2017-Dec-09 13:30N 38°52' W 077°01'0 0.0
2017-Dec-09 12:58N 38°52' W 077°01'0 0.0
2017-Dec-09 12:29N 38°52' W 077°01'0 0.0
2017-Dec-09 11:56N 38°52' W 077°01'0 0.0
2017-Dec-09 11:29N 38°52' W 077°01'0 0.0
2017-Dec-09 10:59N 38°52' W 077°01'0 0.0
2017-Dec-09 10:28N 38°52' W 077°01'0 0.0
2017-Dec-09 09:59N 38°52' W 077°01'0 0.0
2017-Dec-09 09:29N 38°52' W 077°01'0 0.0
2017-Dec-09 09:00N 38°52' W 077°01'0 0.0
2017-Dec-09 08:29N 38°52' W 077°01'0 0.0
2017-Dec-09 07:59N 38°52' W 077°01'0 0.0
2017-Dec-09 07:30N 38°52' W 077°01'0 0.0
2017-Dec-09 06:59N 38°52' W 077°01'0 0.0
2017-Dec-09 06:29N 38°52' W 077°01'0 0.0
2017-Dec-09 05:59N 38°52' W 077°01'0 0.0
2017-Dec-09 05:29N 38°52' W 077°01'0 0.0
2017-Dec-09 04:56N 38°52' W 077°01'0 0.0
2017-Dec-09 04:29N 38°52' W 077°01'0 0.1
2017-Dec-09 03:57N 38°52' W 077°01'2 5.2
2017-Dec-09 03:29N 38°50' W 077°02'3 7.1
2017-Dec-09 03:00N 38°47' W 077°02'1 1.4
2017-Dec-09 02:29N 38°47' W 077°02'2 3.4
2017-Dec-09 02:00N 38°49' W 077°02'2 5.1
2017-Dec-09 01:30N 38°51' W 077°01'1 1.9
2017-Dec-09 00:59N 38°52' W 077°01'0 0.0
2017-Dec-09 00:29N 38°52' W 077°01'0 0.0
2017-Dec-08 23:59N 38°52' W 077°01'0 0.0
2017-Dec-08 23:29N 38°52' W 077°01'0 0.0
2017-Dec-08 22:58N 38°52' W 077°01'0 0.0
2017-Dec-08 22:23N 38°52' W 077°01'0 0.0
2017-Dec-08 21:58N 38°52' W 077°01'0 0.0
2017-Dec-08 21:25N 38°52' W 077°01'0 0.0
2017-Dec-08 20:59N 38°52' W 077°01'0 0.0
2017-Dec-08 20:25N 38°52' W 077°01'0 0.0
2017-Dec-08 19:49N 38°52' W 077°01'0 0.0
2017-Dec-08 19:29N 38°52' W 077°01'0 0.0
2017-Dec-08 19:01N 38°52' W 077°01'0 0.0
2017-Dec-08 18:30N 38°52' W 077°01'2 3.6
2017-Dec-08 17:59N 38°51' W 077°01'3 5.4
2017-Dec-08 17:28N 38°48' W 077°02'4 7.2
2017-Dec-08 16:53N 38°52' W 077°01'0 1.1
2017-Dec-08 16:28N 38°52' W 077°01'0 0.0
2017-Dec-08 15:48N 38°52' W 077°01'0 0.0
2017-Dec-08 15:28N 38°52' W 077°01'0 0.0
2017-Dec-08 14:56N 38°52' W 077°01'0 0.0
2017-Dec-08 14:26N 38°52' W 077°01'0 0.0
2017-Dec-08 14:00N 38°52' W 077°01'0 0.0
2017-Dec-08 13:26N 38°52' W 077°01'0 0.0
2017-Dec-08 13:00N 38°52' W 077°01'0 0.0
2017-Dec-08 12:24N 38°52' W 077°01'0 0.0
2017-Dec-08 12:00N 38°52' W 077°01'0 0.0
2017-Dec-08 11:28N 38°52' W 077°01'0 0.0
2017-Dec-08 10:56N 38°52' W 077°01'0 0.0
2017-Dec-08 10:27N 38°52' W 077°01'0 0.0
2017-Dec-08 09:59N 38°52' W 077°01'0 0.0
2017-Dec-08 09:30N 38°52' W 077°01'0 0.0
2017-Dec-08 09:00N 38°52' W 077°01'0 0.0
2017-Dec-08 08:26N 38°52' W 077°01'0 0.0
2017-Dec-08 07:50N 38°52' W 077°01'0 0.0
2017-Dec-08 07:26N 38°52' W 077°01'0 0.0
2017-Dec-08 07:00N 38°52' W 077°01'0 0.0
2017-Dec-08 06:22N 38°52' W 077°01'0 0.0
2017-Dec-08 06:00N 38°52' W 077°01'0 0.0
2017-Dec-08 05:29N 38°52' W 077°01'0 0.0
2017-Dec-08 04:51N 38°52' W 077°01'0 0.0
2017-Dec-08 04:25N 38°52' W 077°01'0 0.0
2017-Dec-08 03:49N 38°52' W 077°01'0 0.0
2017-Dec-08 03:19N 38°52' W 077°01'0 0.0
2017-Dec-08 02:58N 38°52' W 077°01'1 2.5
2017-Dec-08 02:30N 38°51' W 077°01'3 7.0
2017-Dec-08 02:00N 38°48' W 077°02'1 1.5
2017-Dec-08 01:30N 38°49' W 077°02'3 5.4
2017-Dec-08 01:00N 38°51' W 077°01'0 0.1
2017-Dec-08 00:30N 38°51' W 077°01'1 2.5
2017-Dec-08 00:00N 38°52' W 077°01'0 0.0
2017-Dec-07 23:11N 38°52' W 077°01'0 0.0
2017-Dec-07 22:59N 38°52' W 077°01'0 0.0
2017-Dec-07 22:29N 38°52' W 077°01'0 0.0
2017-Dec-07 21:59N 38°52' W 077°01'0 0.0
2017-Dec-07 21:27N 38°52' W 077°01'0 0.0
2017-Dec-07 20:53N 38°52' W 077°01'0 0.0
2017-Dec-07 20:25N 38°52' W 077°01'0 0.0
2017-Dec-07 20:00N 38°52' W 077°01'0 0.0
2017-Dec-07 19:29N 38°52' W 077°01'0 0.0
2017-Dec-07 18:53N 38°52' W 077°01'1 3.7
2017-Dec-07 18:30N 38°51' W 077°01'4 6.9
2017-Dec-07 17:59N 38°48' W 077°02'2 4.8
2017-Dec-07 17:29N 38°50' W 077°02'2 4.1
2017-Dec-07 16:53N 38°52' W 077°01'0 0.0
2017-Dec-07 16:25N 38°52' W 077°01'0 0.0
2017-Dec-07 16:00N 38°52' W 077°01'0 0.0
2017-Dec-07 15:27N 38°52' W 077°01'0 0.0
2017-Dec-07 14:53N 38°52' W 077°01'0 0.0
2017-Dec-07 14:30N 38°52' W 077°01'0 0.0
2017-Dec-07 13:59N 38°52' W 077°01'0 0.0
2017-Dec-07 13:27N 38°52' W 077°01'0 0.0
2017-Dec-07 13:00N 38°52' W 077°01'0 0.0
2017-Dec-07 12:28N 38°52' W 077°01'0 0.0
2017-Dec-07 11:56N 38°52' W 077°01'0 0.0
2017-Dec-07 11:16N 38°52' W 077°01'0 0.0
2017-Dec-07 11:00N 38°52' W 077°01'0 0.0
2017-Dec-07 10:31N 38°52' W 077°01'0 0.0
2017-Dec-07 10:00N 38°52' W 077°01'0 0.0
2017-Dec-07 09:29N 38°52' W 077°01'0 0.0
2017-Dec-07 08:59N 38°52' W 077°01'0 0.0
2017-Dec-07 08:25N 38°52' W 077°01'0 0.0
2017-Dec-07 07:59N 38°52' W 077°01'0 0.0
2017-Dec-07 07:29N 38°52' W 077°01'0 0.0
2017-Dec-07 06:59N 38°52' W 077°01'0 0.0
2017-Dec-07 06:27N 38°52' W 077°01'0 0.0
2017-Dec-07 05:55N 38°52' W 077°01'0 0.0
2017-Dec-07 05:25N 38°52' W 077°01'0 0.0
2017-Dec-07 04:57N 38°52' W 077°01'0 0.0
2017-Dec-07 04:30N 38°52' W 077°01'0 0.0
2017-Dec-07 03:56N 38°52' W 077°01'0 0.0
2017-Dec-07 03:28N 38°52' W 077°01'0 0.0
2017-Dec-07 02:58N 38°52' W 077°01'0 0.0
2017-Dec-07 02:24N 38°52' W 077°01'0 0.0
2017-Dec-07 02:00N 38°52' W 077°01'0 0.0
2017-Dec-07 01:30N 38°52' W 077°01'0 0.0
2017-Dec-07 01:00N 38°52' W 077°01'0 0.0
2017-Dec-07 00:18N 38°52' W 077°01'0 0.0
2017-Dec-06 23:56N 38°52' W 077°01'0 0.0
2017-Dec-06 23:30N 38°52' W 077°01'0 0.0
2017-Dec-06 22:57N 38°52' W 077°01'0 0.0
2017-Dec-06 22:30N 38°52' W 077°01'0 0.0
2017-Dec-06 21:59N 38°52' W 077°01'0 0.0
2017-Dec-06 21:29N 38°52' W 077°01'0 0.0
2017-Dec-06 20:58N 38°52' W 077°01'  

Dump ship's entire track history